createdAt,value
2023-02-18T00:01:40.408Z,101467.50
2023-02-18T00:04:11.114Z,101454.31
2023-02-18T00:06:39.779Z,101471.31
2023-02-18T00:09:09.305Z,101455.97
2023-02-18T00:11:38.602Z,101449.72
2023-02-18T00:14:09.025Z,101448.19
2023-02-18T00:16:37.211Z,101447.03
2023-02-18T00:19:09.440Z,101462.06
2023-02-18T00:21:39.175Z,101460.75
2023-02-18T00:24:09.050Z,101446.84
2023-02-18T00:26:37.458Z,101441.91
2023-02-18T00:29:05.771Z,101454.78
2023-02-18T00:31:35.790Z,101429.84
2023-02-18T00:34:05.776Z,101416.63
2023-02-18T00:36:34.761Z,101424.56
2023-02-18T00:39:08.174Z,101427.50
2023-02-18T00:41:37.346Z,101412.19
2023-02-18T00:44:06.007Z,101416.59
2023-02-18T00:46:35.442Z,101416.28
2023-02-18T00:49:04.416Z,101394.50
2023-02-18T00:51:33.192Z,101398.13
2023-02-18T00:54:01.426Z,101409.38
2023-02-18T00:56:31.084Z,101414.97
2023-02-18T00:58:59.431Z,101402.25
2023-02-18T01:01:29.334Z,101400.44
2023-02-18T01:03:57.921Z,101393.50
2023-02-18T01:06:26.140Z,101400.94
2023-02-18T01:08:54.245Z,101383.13
2023-02-18T01:11:23.892Z,101397.28
2023-02-18T01:13:53.564Z,101382.94
2023-02-18T01:16:21.937Z,101381.91
2023-02-18T01:18:50.106Z,101377.31
2023-02-18T01:21:18.378Z,101381.78
2023-02-18T01:23:46.639Z,101366.41
2023-02-18T01:26:14.813Z,101374.50
2023-02-18T01:28:43.073Z,101378.97
2023-02-18T01:31:14.382Z,101376.16
2023-02-18T01:33:43.541Z,101378.81
2023-02-18T01:36:12.737Z,101372.03
2023-02-18T01:38:41.309Z,101366.91
2023-02-18T01:41:09.716Z,101364.25
2023-02-18T01:43:40.121Z,101353.38
2023-02-18T01:46:27.271Z,101343.63
2023-02-18T01:48:58.436Z,101343.00
2023-02-18T01:51:30.067Z,101346.44
2023-02-18T01:54:03.901Z,101338.53
2023-02-18T01:56:37.656Z,101333.41
2023-02-18T01:59:11.157Z,101328.59
2023-02-18T02:01:43.723Z,101339.19
2023-02-18T02:04:12.498Z,101329.44
2023-02-18T02:06:40.717Z,101328.47
2023-02-18T02:09:12.314Z,101336.03
2023-02-18T02:11:54.558Z,101323.84
2023-02-18T02:14:48.678Z,101313.25
2023-02-18T02:17:27.609Z,101338.53
2023-02-18T02:20:31.930Z,101336.38
2023-02-18T02:23:29.599Z,101329.13
2023-02-18T02:26:22.649Z,101333.41
2023-02-18T02:29:20.661Z,101323.16
2023-02-18T02:32:02.618Z,101359.69
2023-02-18T02:34:51.574Z,101328.13
2023-02-18T02:37:28.853Z,101336.03
2023-02-18T02:40:14.257Z,101343.31
2023-02-18T02:42:55.584Z,101327.13
2023-02-18T02:45:33.827Z,101330.13
2023-02-18T02:48:10.923Z,101325.50
2023-02-18T02:50:46.682Z,101332.59
2023-02-18T02:53:20.432Z,101328.97
2023-02-18T02:55:48.732Z,101327.31
2023-02-18T02:58:18.483Z,101316.91
2023-02-18T03:00:59.837Z,101304.38
2023-02-18T03:03:44.930Z,101295.09
2023-02-18T03:06:40.230Z,101314.28
2023-02-18T03:09:16.831Z,101305.34
2023-02-18T03:11:53.743Z,101318.88
2023-02-18T03:14:29.157Z,101330.75
2023-02-18T03:17:03.639Z,101325.16
2023-02-18T03:19:36.826Z,101329.44
2023-02-18T03:22:10.072Z,101331.44
2023-02-18T03:24:41.386Z,101330.44
2023-02-18T03:27:15.243Z,101333.56
2023-02-18T03:29:46.713Z,101334.22
2023-02-18T03:32:17.241Z,101324.16
2023-02-18T03:34:50.236Z,101309.97
2023-02-18T03:37:20.458Z,101311.44
2023-02-18T03:39:53.845Z,101313.44
2023-02-18T03:42:26.334Z,101304.00
2023-02-18T03:44:54.548Z,101311.91
2023-02-18T03:47:22.838Z,101305.81
2023-02-18T03:49:51.067Z,101299.19
2023-02-18T03:52:20.562Z,101324.13
2023-02-18T03:54:48.665Z,101320.00
2023-02-18T03:57:16.800Z,101306.66
2023-02-18T03:59:44.976Z,101323.13
2023-02-18T04:02:13.193Z,101324.97
2023-02-18T04:04:41.685Z,101322.50
2023-02-18T04:07:09.999Z,101337.66
2023-02-18T04:09:39.475Z,101336.00
2023-02-18T04:12:08.199Z,101340.28
2023-02-18T04:14:36.342Z,101327.09
2023-02-18T04:17:04.502Z,101346.50
2023-02-18T04:19:32.966Z,101341.41
2023-02-18T04:22:01.138Z,101359.53
2023-02-18T04:24:29.359Z,101354.72
2023-02-18T04:26:58.961Z,101346.16
2023-02-18T04:29:27.179Z,101353.41
2023-02-18T04:31:55.281Z,101356.50
2023-02-18T04:34:23.513Z,101354.88
2023-02-18T04:36:51.680Z,101334.56
2023-02-18T04:39:19.730Z,101358.63
2023-02-18T04:41:47.979Z,101349.06
2023-02-18T04:44:17.485Z,101361.44
2023-02-18T04:46:45.610Z,101371.47
2023-02-18T04:49:13.824Z,101381.91
2023-02-18T04:51:41.970Z,101389.81
2023-02-18T04:54:10.097Z,101370.50
2023-02-18T04:56:38.158Z,101378.75
2023-02-18T04:59:06.364Z,101377.09
2023-02-18T05:01:36.040Z,101383.03
2023-02-18T05:04:04.672Z,101385.00
2023-02-18T05:06:32.752Z,101382.50
2023-02-18T05:09:00.854Z,101397.22
2023-02-18T05:11:29.086Z,101398.34
2023-02-18T05:13:57.158Z,101389.31
2023-02-18T05:16:25.329Z,101402.66
2023-02-18T05:18:54.834Z,101405.13
2023-02-18T05:21:23.033Z,101390.94
2023-02-18T05:23:51.221Z,101408.44
2023-02-18T05:26:19.533Z,101398.03
2023-02-18T05:28:47.705Z,101411.25
2023-02-18T05:31:16.019Z,101399.16
2023-02-18T05:33:44.289Z,101405.59
2023-02-18T05:36:13.808Z,101414.69
2023-02-18T05:38:42.059Z,101403.31
2023-02-18T05:41:10.189Z,101394.88
2023-02-18T05:43:52.210Z,101417.28
2023-02-18T05:46:20.334Z,101414.00
2023-02-18T05:48:48.587Z,101405.38
2023-02-18T05:51:18.228Z,101396.00
2023-02-18T05:53:46.487Z,101395.47
2023-02-18T05:56:14.925Z,101411.00
2023-02-18T05:58:43.078Z,101398.78
2023-02-18T06:01:11.298Z,101412.13
2023-02-18T06:03:39.417Z,101408.81
2023-02-18T06:06:09.068Z,101407.19
2023-02-18T06:08:38.951Z,101411.28
2023-02-18T06:11:07.139Z,101419.22
2023-02-18T06:13:35.307Z,101414.75
2023-02-18T06:16:03.529Z,101423.84
2023-02-18T06:18:31.753Z,101420.19
2023-02-18T06:20:59.996Z,101441.31
2023-02-18T06:23:28.274Z,101446.59
2023-02-18T06:25:57.850Z,101443.78
2023-02-18T06:28:26.121Z,101447.13
2023-02-18T06:30:54.325Z,101446.94
2023-02-18T06:33:22.566Z,101459.16
2023-02-18T06:35:58.635Z,101455.84
2023-02-18T06:38:27.755Z,101462.59
2023-02-18T06:40:57.239Z,101446.94
2023-02-18T06:43:25.425Z,101467.06
2023-02-18T06:45:54.206Z,101468.88
2023-02-18T06:48:22.596Z,101475.66
2023-02-18T06:50:51.604Z,101482.44
2023-02-18T06:53:19.813Z,101494.34
2023-02-18T06:55:48.036Z,101490.88
2023-02-18T06:58:17.927Z,101494.50
2023-02-18T07:00:46.513Z,101494.16
2023-02-18T07:03:15.600Z,101507.06
2023-02-18T07:05:43.989Z,101498.16
2023-02-18T07:08:12.163Z,101492.59
2023-02-18T07:10:40.731Z,101493.25
2023-02-18T07:13:09.280Z,101498.22
2023-02-18T07:15:38.881Z,101508.78
2023-02-18T07:18:07.213Z,101517.34
2023-02-18T07:20:35.683Z,101529.91
2023-02-18T07:23:03.764Z,101540.97
2023-02-18T07:25:31.908Z,101534.88
2023-02-18T07:28:00.125Z,101545.34
2023-02-18T07:30:28.404Z,101548.81
2023-02-18T07:32:57.965Z,101555.25
2023-02-18T07:35:26.207Z,101550.28
2023-02-18T07:37:54.421Z,101561.19
2023-02-18T07:40:23.646Z,101562.00
2023-02-18T07:42:51.798Z,101553.38
2023-02-18T07:45:20.012Z,101566.44
2023-02-18T07:47:48.095Z,101569.75
2023-02-18T07:50:17.702Z,101568.47
2023-02-18T07:52:45.777Z,101569.59
2023-02-18T07:55:13.892Z,101580.16
2023-02-18T07:57:55.814Z,101577.84
2023-02-18T08:00:24.533Z,101571.72
2023-02-18T08:02:52.771Z,101580.78
2023-02-18T08:05:22.676Z,101584.41
2023-02-18T08:07:50.907Z,101586.53
2023-02-18T08:10:19.337Z,101590.69
2023-02-18T08:12:47.590Z,101595.97
2023-02-18T08:15:16.220Z,101602.72
2023-02-18T08:17:44.507Z,101606.53
2023-02-18T08:20:13.288Z,101601.06
2023-02-18T08:22:42.853Z,101606.19
2023-02-18T08:25:18.215Z,101604.25
2023-02-18T08:27:55.766Z,101606.72
2023-02-18T08:30:23.928Z,101615.00
2023-02-18T08:32:52.087Z,101612.53
2023-02-18T08:35:20.562Z,101617.50
2023-02-18T08:37:52.103Z,101624.56
2023-02-18T08:40:22.395Z,101618.47
2023-02-18T08:42:50.548Z,101622.66
2023-02-18T08:45:20.324Z,101631.09
2023-02-18T08:48:18.416Z,101625.66
2023-02-18T08:50:37.377Z,101635.41
2023-02-18T08:53:07.205Z,101644.31
2023-02-18T08:55:37.277Z,101640.38
2023-02-18T08:58:07.473Z,101649.97
2023-02-18T09:00:36.685Z,101644.34
2023-02-18T09:03:04.968Z,101654.63
2023-02-18T09:05:38.169Z,101653.78
2023-02-18T09:08:11.411Z,101660.56
2023-02-18T09:10:39.801Z,101670.63
2023-02-18T09:13:07.889Z,101668.28
2023-02-18T09:15:36.171Z,101681.94
2023-02-18T09:18:04.449Z,101685.31
2023-02-18T09:20:32.596Z,101693.69
2023-02-18T09:23:04.188Z,101685.72
2023-02-18T09:25:33.782Z,101687.91
2023-02-18T09:28:01.842Z,101694.84
2023-02-18T09:30:30.077Z,101697.63
2023-02-18T09:32:58.192Z,101695.38
2023-02-18T09:35:26.298Z,101698.84
2023-02-18T09:37:54.766Z,101698.69
2023-02-18T09:40:27.513Z,101692.41
2023-02-18T09:42:59.180Z,101683.22
2023-02-18T09:45:27.636Z,101682.25
2023-02-18T09:47:56.358Z,101679.47
2023-02-18T09:50:28.158Z,101689.25
2023-02-18T09:52:59.462Z,101676.75
2023-02-18T09:55:30.562Z,101678.75
2023-02-18T09:58:04.008Z,101682.91
2023-02-18T10:00:35.433Z,101685.22
2023-02-18T10:03:07.513Z,101683.13
2023-02-18T10:05:38.092Z,101683.47
2023-02-18T10:08:08.858Z,101676.72
2023-02-18T10:10:41.251Z,101670.25
2023-02-18T10:13:15.542Z,101685.50
2023-02-18T10:15:44.821Z,101684.19
2023-02-18T10:18:22.996Z,101691.16
2023-02-18T10:20:53.439Z,101693.94
2023-02-18T10:23:23.128Z,101686.84
2023-02-18T10:25:52.435Z,101682.72
2023-02-18T10:28:26.262Z,101691.91
2023-02-18T10:30:59.794Z,101689.53
2023-02-18T10:33:36.797Z,101692.00
2023-02-18T10:36:19.319Z,101697.09
2023-02-18T10:39:10.215Z,101700.75
2023-02-18T10:41:48.512Z,101698.28
2023-02-18T10:44:26.694Z,101705.09
2023-02-18T10:47:05.262Z,101695.66
2023-02-18T10:49:54.217Z,101691.19
2023-02-18T10:52:22.824Z,101687.78
2023-02-18T10:54:54.372Z,101691.59
2023-02-18T10:57:23.835Z,101671.44
2023-02-18T11:00:10.796Z,101682.84
2023-02-18T11:02:40.813Z,101676.63
2023-02-18T11:05:20.954Z,101682.25
2023-02-18T11:07:52.401Z,101687.44
2023-02-18T11:10:25.786Z,101676.53
2023-02-18T11:12:59.149Z,101677.38
2023-02-18T11:15:30.050Z,101673.72
2023-02-18T11:18:00.455Z,101683.16
2023-02-18T11:20:32.410Z,101672.59
2023-02-18T11:23:16.680Z,101673.72
2023-02-18T11:25:57.969Z,101673.56
2023-02-18T11:28:41.736Z,101675.91
2023-02-18T11:31:17.870Z,101680.19
2023-02-18T11:33:49.457Z,101681.84
2023-02-18T11:36:24.117Z,101687.06
2023-02-18T11:38:55.624Z,101700.66
2023-02-18T11:41:30.259Z,101688.09
2023-02-18T11:43:59.212Z,101695.19
2023-02-18T11:46:29.704Z,101701.63
2023-02-18T11:49:12.098Z,101713.69
2023-02-18T11:51:41.615Z,101689.88
2023-02-18T11:54:25.746Z,101713.81
2023-02-18T11:56:59.803Z,101712.22
2023-02-18T11:59:29.282Z,101729.56
2023-02-18T12:02:05.576Z,101721.63
2023-02-18T12:04:42.040Z,101719.97
2023-02-18T12:07:20.570Z,101720.81
2023-02-18T12:09:52.172Z,101728.91
2023-02-18T12:12:26.456Z,101728.38
2023-02-18T12:14:56.773Z,101745.59
2023-02-18T12:17:41.518Z,101740.47
2023-02-18T12:20:28.171Z,101733.91
2023-02-18T12:23:04.081Z,101730.88
2023-02-18T12:25:42.467Z,101730.34
2023-02-18T12:28:27.163Z,101732.88
2023-02-18T12:31:11.119Z,101731.41
2023-02-18T12:33:51.106Z,101742.16
2023-02-18T12:36:33.042Z,101734.72
2023-02-18T12:39:12.948Z,101723.13
2023-02-18T12:41:55.099Z,101724.28
2023-02-18T12:44:45.553Z,101710.56
2023-02-18T12:47:37.931Z,101740.34
2023-02-18T12:50:49.074Z,101741.97
2023-02-18T12:53:46.124Z,101739.63
2023-02-18T12:56:29.913Z,101752.53
2023-02-18T12:59:09.295Z,101732.69
2023-02-18T13:01:48.076Z,101732.53
2023-02-18T13:04:46.007Z,101719.78
2023-02-18T13:07:41.273Z,101736.66
2023-02-18T13:10:44.082Z,101718.97
2023-02-18T13:13:15.926Z,101723.44
2023-02-18T13:15:48.092Z,101728.38
2023-02-18T13:18:24.245Z,101719.09
2023-02-18T13:20:55.255Z,101724.25
2023-02-18T13:23:29.136Z,101723.78
2023-02-18T13:26:01.262Z,101718.31
2023-02-18T13:28:36.192Z,101715.84
2023-02-18T13:31:18.942Z,101718.13
2023-02-18T13:33:56.283Z,101707.88
2023-02-18T13:36:38.267Z,101703.91
2023-02-18T13:39:11.544Z,101720.28
2023-02-18T13:41:42.207Z,101711.16
2023-02-18T13:44:31.659Z,101685.38
2023-02-18T13:47:00.962Z,101694.81
2023-02-18T13:49:34.996Z,101678.09
2023-02-18T13:52:05.421Z,101680.75
2023-02-18T13:54:43.195Z,101676.28
2023-02-18T13:57:17.722Z,101672.97
2023-02-18T13:59:48.690Z,101655.91
2023-02-18T14:02:34.807Z,101679.09
2023-02-18T14:05:23.840Z,101665.16
2023-02-18T14:07:54.093Z,101663.66
2023-02-18T14:10:34.366Z,101669.97
2023-02-18T14:13:22.642Z,101663.19
2023-02-18T14:15:55.551Z,101659.22
2023-02-18T14:18:37.005Z,101662.03
2023-02-18T14:21:20.164Z,101670.16
2023-02-18T14:24:02.522Z,101655.59
2023-02-18T14:26:35.451Z,101639.19
2023-02-18T14:29:09.346Z,101640.66
2023-02-18T14:31:46.522Z,101637.06
2023-02-18T14:35:02.236Z,101636.69
2023-02-18T14:37:52.513Z,101624.78
2023-02-18T14:40:42.430Z,101613.06
2023-02-18T14:43:22.013Z,101623.16
2023-02-18T14:46:05.316Z,101615.19
2023-02-18T14:49:04.077Z,101614.38
2023-02-18T14:51:35.485Z,101619.19
2023-02-18T14:54:08.518Z,101609.91
2023-02-18T14:56:52.900Z,101626.44
2023-02-18T14:59:25.057Z,101635.22
2023-02-18T15:01:56.601Z,101634.72
2023-02-18T15:04:25.602Z,101642.84
2023-02-18T15:07:01.616Z,101649.44
2023-02-18T15:09:29.749Z,101640.88
2023-02-18T15:12:01.494Z,101653.44
2023-02-18T15:14:35.153Z,101658.72
2023-02-18T15:17:04.564Z,101649.31
2023-02-18T15:19:41.398Z,101671.94
2023-02-18T15:22:18.422Z,101676.59
2023-02-18T15:24:47.272Z,101680.06
2023-02-18T15:27:18.205Z,101678.91
2023-02-18T15:29:51.266Z,101670.97
2023-02-18T15:32:21.415Z,101684.19
2023-02-18T15:34:52.298Z,101685.50
2023-02-18T15:37:21.139Z,101680.53
2023-02-18T15:39:50.146Z,101682.69
2023-02-18T15:42:28.748Z,101685.34
2023-02-18T15:45:00.635Z,101681.47
2023-02-18T15:47:29.610Z,101689.28
2023-02-18T15:50:02.894Z,101682.63
2023-02-18T15:52:34.540Z,101695.00
2023-02-18T15:55:04.374Z,101687.56
2023-02-18T15:57:34.209Z,101696.16
2023-02-18T16:00:07.319Z,101688.19
2023-02-18T16:02:35.557Z,101692.16
2023-02-18T16:05:05.579Z,101680.06
2023-02-18T16:07:39.562Z,101688.47
2023-02-18T16:10:17.325Z,101685.59
2023-02-18T16:12:50.408Z,101703.47
2023-02-18T16:15:26.952Z,101702.41
2023-02-18T16:17:56.053Z,101706.69
2023-02-18T16:20:30.300Z,101693.25
2023-02-18T16:23:02.052Z,101694.41
2023-02-18T16:25:41.713Z,101685.59
2023-02-18T16:28:16.512Z,101698.47
2023-02-18T16:30:46.694Z,101692.47
2023-02-18T16:33:14.894Z,101700.88
2023-02-18T16:35:49.982Z,101698.22
2023-02-18T16:38:21.083Z,101704.38
2023-02-18T16:40:50.254Z,101706.53
2023-02-18T16:43:20.548Z,101728.28
2023-02-18T16:45:52.324Z,101704.38
2023-02-18T16:48:23.705Z,101728.47
2023-02-18T16:50:52.814Z,101734.38
2023-02-18T16:53:21.346Z,101739.59
2023-02-18T16:55:51.051Z,101734.59
2023-02-18T16:58:19.251Z,101715.44
2023-02-18T17:00:50.210Z,101740.50
2023-02-18T17:03:18.563Z,101750.00
2023-02-18T17:05:46.758Z,101762.53
2023-02-18T17:08:19.371Z,101755.28
2023-02-18T17:10:49.502Z,101764.19
2023-02-18T17:13:18.366Z,101770.66
2023-02-18T17:15:47.974Z,101775.00
2023-02-18T17:18:17.726Z,101791.97
2023-02-18T17:20:48.436Z,101771.00
2023-02-18T17:23:16.790Z,101784.34
2023-02-18T17:25:45.716Z,101780.88
2023-02-18T17:28:15.220Z,101787.28
2023-02-18T17:30:44.302Z,101790.06
2023-02-18T17:33:16.587Z,101798.16
2023-02-18T17:35:46.861Z,101798.97
2023-02-18T17:38:17.723Z,101803.44
2023-02-18T17:40:46.586Z,101820.25
2023-02-18T17:43:16.730Z,101818.44
2023-02-18T17:45:48.299Z,101835.41
2023-02-18T17:48:16.107Z,101825.41
2023-02-18T17:50:46.212Z,101835.56
2023-02-18T17:53:15.798Z,101833.09
2023-02-18T17:55:45.329Z,101835.72
2023-02-18T17:58:14.658Z,101844.47
2023-02-18T18:00:45.072Z,101840.03
2023-02-18T18:03:14.522Z,101844.88
2023-02-18T18:05:44.882Z,101848.06
2023-02-18T18:08:14.833Z,101846.00
2023-02-18T18:10:50.170Z,101857.41
2023-02-18T18:13:22.448Z,101853.09
2023-02-18T18:15:51.508Z,101852.13
2023-02-18T18:18:20.907Z,101875.88
2023-02-18T18:20:52.126Z,101871.59
2023-02-18T18:23:22.786Z,101871.59
2023-02-18T18:25:53.307Z,101884.78
2023-02-18T18:28:21.639Z,101897.69
2023-02-18T18:30:51.579Z,101889.78
2023-02-18T18:33:22.428Z,101914.66
2023-02-18T18:35:52.432Z,101910.19
2023-02-18T18:38:24.102Z,101918.97
2023-02-18T18:40:53.774Z,101911.50
2023-02-18T18:43:24.632Z,101911.50
2023-02-18T18:45:53.718Z,101916.06
2023-02-18T18:48:23.018Z,101931.25
2023-02-18T18:50:53.418Z,101922.09
2023-02-18T18:53:25.189Z,101922.78
2023-02-18T18:55:55.628Z,101935.97
2023-02-18T18:58:26.948Z,101925.13
2023-02-18T19:00:57.121Z,101941.81
2023-02-18T19:03:26.672Z,101942.25
2023-02-18T19:05:55.582Z,101942.09
2023-02-18T19:08:26.336Z,101946.97
2023-02-18T19:10:56.751Z,101953.50
2023-02-18T19:13:26.656Z,101957.81
2023-02-18T19:16:02.371Z,101952.53
2023-02-18T19:18:32.668Z,101967.94
2023-02-18T19:21:02.378Z,101979.19
2023-02-18T19:23:32.261Z,101976.41
2023-02-18T19:26:00.538Z,101983.25
2023-02-18T19:28:29.310Z,101990.03
2023-02-18T19:30:57.500Z,101999.38
2023-02-18T19:33:25.726Z,102001.03
2023-02-18T19:35:53.943Z,101994.09
2023-02-18T19:38:22.057Z,101988.66
2023-02-18T19:40:54.028Z,101996.72
2023-02-18T19:43:22.333Z,101992.56
2023-02-18T19:45:50.628Z,101996.19
2023-02-18T19:48:20.880Z,102022.72
2023-02-18T19:50:49.331Z,102014.41
2023-02-18T19:53:17.622Z,102026.78
2023-02-18T19:55:45.855Z,102031.22
2023-02-18T19:58:15.394Z,102047.72
2023-02-18T20:00:43.799Z,102039.97
2023-02-18T20:03:11.950Z,102040.91
2023-02-18T20:05:40.108Z,102039.66
2023-02-18T20:08:08.504Z,102046.63
2023-02-18T20:10:37.104Z,102040.66
2023-02-18T20:13:10.561Z,102055.66
2023-02-18T20:15:41.823Z,102067.03
2023-02-18T20:18:10.022Z,102068.84
2023-02-18T20:20:38.190Z,102069.69
2023-02-18T20:23:06.641Z,102066.22
2023-02-18T20:25:34.917Z,102078.72
2023-02-18T20:28:02.960Z,102081.38
2023-02-18T20:30:31.225Z,102088.41
2023-02-18T20:33:00.773Z,102098.72
2023-02-18T20:35:29.014Z,102094.25
2023-02-18T20:37:57.217Z,102080.09
2023-02-18T20:40:25.532Z,102088.88
2023-02-18T20:42:53.778Z,102084.69
2023-02-18T20:45:21.929Z,102095.25
2023-02-18T20:47:50.122Z,102103.44
2023-02-18T20:50:21.894Z,102110.41
2023-02-18T20:52:50.473Z,102107.88
2023-02-18T20:55:18.898Z,102120.25
2023-02-18T20:57:47.097Z,102114.81
2023-02-18T21:00:16.472Z,102113.16
2023-02-18T21:02:44.767Z,102125.25
2023-02-18T21:05:12.920Z,102123.03
2023-02-18T21:07:42.500Z,102123.56
2023-02-18T21:10:10.751Z,102141.78
2023-02-18T21:12:38.931Z,102146.47
2023-02-18T21:15:07.472Z,102153.56
2023-02-18T21:17:35.638Z,102175.66
2023-02-18T21:20:04.203Z,102169.13
2023-02-18T21:22:32.768Z,102180.94
2023-02-18T21:25:02.258Z,102161.63
2023-02-18T21:27:30.430Z,102180.38
2023-02-18T21:30:00.439Z,102184.56
2023-02-18T21:32:28.911Z,102203.84
2023-02-18T21:34:57.337Z,102203.84
2023-02-18T21:37:25.692Z,102210.94
2023-02-18T21:39:53.893Z,102212.31
2023-02-18T21:42:23.862Z,102208.41
2023-02-18T21:44:52.092Z,102217.59
2023-02-18T21:47:20.219Z,102234.38
2023-02-18T21:49:48.524Z,102238.00
2023-02-18T21:52:16.873Z,102237.03
2023-02-18T21:54:45.561Z,102256.47
2023-02-18T21:57:16.108Z,102255.06
2023-02-18T21:59:46.450Z,102257.44
2023-02-18T22:02:17.892Z,102264.78
2023-02-18T22:04:47.073Z,102263.38
2023-02-18T22:07:15.857Z,102284.78
2023-02-18T22:09:45.205Z,102270.59
2023-02-18T22:12:14.399Z,102277.41
2023-02-18T22:14:43.708Z,102271.19
2023-02-18T22:17:13.889Z,102273.09
2023-02-18T22:19:42.048Z,102273.81
2023-02-18T22:22:10.836Z,102284.22
2023-02-18T22:24:39.063Z,102301.16
2023-02-18T22:27:07.276Z,102308.13
2023-02-18T22:29:35.824Z,102311.31
2023-02-18T22:32:04.247Z,102321.75
2023-02-18T22:34:33.769Z,102311.69
2023-02-18T22:37:01.891Z,102321.41
2023-02-18T22:39:30.041Z,102322.97
2023-02-18T22:41:58.260Z,102320.34
2023-02-18T22:44:27.430Z,102327.03
2023-02-18T22:46:56.751Z,102328.09
2023-02-18T22:49:25.941Z,102334.22
2023-02-18T22:51:56.069Z,102344.06
2023-02-18T22:54:24.528Z,102355.72
2023-02-18T22:56:54.504Z,102360.56
2023-02-18T22:59:22.717Z,102352.19
2023-02-18T23:01:53.055Z,102377.75
2023-02-18T23:04:22.714Z,102369.97
2023-02-18T23:06:51.724Z,102377.06
2023-02-18T23:09:23.525Z,102371.78
2023-02-18T23:11:53.151Z,102372.47
2023-02-18T23:14:22.527Z,102388.53
2023-02-18T23:17:10.671Z,102398.00
2023-02-18T23:19:39.966Z,102400.91
2023-02-18T23:22:08.666Z,102401.03
2023-02-18T23:24:41.874Z,102399.63
2023-02-18T23:27:11.720Z,102400.75
2023-02-18T23:29:40.500Z,102405.72
2023-02-18T23:32:09.254Z,102415.44
2023-02-18T23:34:38.245Z,102416.19
2023-02-18T23:37:07.184Z,102413.50
2023-02-18T23:39:35.545Z,102412.09
2023-02-18T23:42:05.423Z,102417.06
2023-02-18T23:44:33.566Z,102424.34
2023-02-18T23:47:01.692Z,102434.16
2023-02-18T23:49:29.984Z,102429.16
2023-02-18T23:51:58.805Z,102427.75
2023-02-18T23:54:27.362Z,102425.63
2023-02-18T23:56:55.537Z,102447.94
2023-02-18T23:59:25.034Z,102442.22
